Palmer Township, Pennsylvania
Current Conditions -  °F | °C
As of 12:51 PM on Friday 31 Oct 2014 (Local Time) from KABE Reporting Station
Clear Clear  
Wind Chill: 51°   Ceiling: Unl
Heat Index: 51°   Visibility: 10mi
Dew Point: 34°   Wind: 6mph
Humidity: 52%   Direction: 110°ESE
Pressure: 29.96"   Gusts: NA
Location:  40.6892°N, 75.2775°W
Report Text: KABE 311651Z 11005KT 10SM CLR 11/01 A2996 RMK AO2 SLP146 T01060011
Loading
Personal Weather Stations






























Interactive Weather Map
Tropical Storm Tracking
New forecast layout! Learn more

10-Day Weather Forecast

Advertisements
Track Severe Weather on mobile